sensor_id;sensor_type;location;lat;lon;timestamp;pressure;altitude;pressure_sealevel;temperature;humidity
21594;BME280;10959;51.328;7.322;2024-02-23T00:02:04;96222.41;;;7.03;66.57
21594;BME280;10959;51.328;7.322;2024-02-23T00:04:31;96231.91;;;6.96;66.16
21594;BME280;10959;51.328;7.322;2024-02-23T00:06:57;96240.63;;;6.88;67.00
21594;BME280;10959;51.328;7.322;2024-02-23T00:09:25;96239.97;;;6.96;67.10
21594;BME280;10959;51.328;7.322;2024-02-23T00:11:52;96250.78;;;6.91;67.33
21594;BME280;10959;51.328;7.322;2024-02-23T00:14:19;96260.50;;;6.87;67.23
21594;BME280;10959;51.328;7.322;2024-02-23T00:16:46;96263.50;;;6.85;66.99
21594;BME280;10959;51.328;7.322;2024-02-23T00:19:13;96283.69;;;6.83;67.13
21594;BME280;10959;51.328;7.322;2024-02-23T00:21:40;96287.53;;;6.77;66.26
21594;BME280;10959;51.328;7.322;2024-02-23T00:24:07;96278.78;;;6.66;66.86
21594;BME280;10959;51.328;7.322;2024-02-23T00:26:35;96299.53;;;6.60;67.10
21594;BME280;10959;51.328;7.322;2024-02-23T00:29:02;96290.19;;;6.58;66.33
21594;BME280;10959;51.328;7.322;2024-02-23T00:31:28;96289.72;;;6.51;67.03
21594;BME280;10959;51.328;7.322;2024-02-23T00:33:55;96306.75;;;6.41;67.34
21594;BME280;10959;51.328;7.322;2024-02-23T00:36:21;96317.38;;;6.51;67.24
21594;BME280;10959;51.328;7.322;2024-02-23T00:38:48;96322.41;;;6.58;67.19
21594;BME280;10959;51.328;7.322;2024-02-23T00:41:14;96318.25;;;6.66;67.29
21594;BME280;10959;51.328;7.322;2024-02-23T00:43:42;96329.41;;;6.54;66.87
21594;BME280;10959;51.328;7.322;2024-02-23T00:46:09;96334.22;;;6.57;67.64
21594;BME280;10959;51.328;7.322;2024-02-23T00:48:35;96331.41;;;6.67;67.65
21594;BME280;10959;51.328;7.322;2024-02-23T00:51:02;96346.22;;;6.65;67.84
21594;BME280;10959;51.328;7.322;2024-02-23T00:53:30;96358.84;;;6.64;67.49
21594;BME280;10959;51.328;7.322;2024-02-23T00:55:57;96354.31;;;6.59;67.28
21594;BME280;10959;51.328;7.322;2024-02-23T00:58:24;96370.97;;;6.61;67.87
21594;BME280;10959;51.328;7.322;2024-02-23T01:00:51;96382.47;;;6.62;67.60
21594;BME280;10959;51.328;7.322;2024-02-23T01:03:18;96372.03;;;6.60;67.12
21594;BME280;10959;51.328;7.322;2024-02-23T01:05:45;96390.94;;;6.50;67.32
21594;BME280;10959;51.328;7.322;2024-02-23T01:08:11;96387.50;;;6.45;67.26
21594;BME280;10959;51.328;7.322;2024-02-23T01:10:37;96401.75;;;6.45;67.23
21594;BME280;10959;51.328;7.322;2024-02-23T01:13:04;96402.53;;;6.46;67.57
21594;BME280;10959;51.328;7.322;2024-02-23T01:15:31;96418.91;;;6.44;67.61
21594;BME280;10959;51.328;7.322;2024-02-23T01:17:59;96415.97;;;6.46;67.60
21594;BME280;10959;51.328;7.322;2024-02-23T01:20:25;96412.97;;;6.47;67.93
21594;BME280;10959;51.328;7.322;2024-02-23T01:22:52;96417.75;;;6.55;68.15
21594;BME280;10959;51.328;7.322;2024-02-23T01:25:18;96409.63;;;6.60;67.95
21594;BME280;10959;51.328;7.322;2024-02-23T01:27:45;96406.38;;;6.63;67.93
21594;BME280;10959;51.328;7.322;2024-02-23T01:30:12;96418.66;;;6.70;67.92
21594;BME280;10959;51.328;7.322;2024-02-23T01:32:38;96415.19;;;6.69;68.16
21594;BME280;10959;51.328;7.322;2024-02-23T01:35:07;96406.28;;;6.74;67.89
21594;BME280;10959;51.328;7.322;2024-02-23T01:37:34;96426.66;;;6.75;67.97
21594;BME280;10959;51.328;7.322;2024-02-23T01:40:00;96433.13;;;6.74;68.33
21594;BME280;10959;51.328;7.322;2024-02-23T01:42:27;96437.41;;;6.75;67.95
21594;BME280;10959;51.328;7.322;2024-02-23T01:44:53;96434.47;;;6.71;68.24
21594;BME280;10959;51.328;7.322;2024-02-23T01:47:22;96437.72;;;6.68;68.31
21594;BME280;10959;51.328;7.322;2024-02-23T01:49:48;96434.84;;;6.65;68.18
21594;BME280;10959;51.328;7.322;2024-02-23T01:52:17;96431.63;;;6.62;68.23
21594;BME280;10959;51.328;7.322;2024-02-23T01:54:44;96436.41;;;6.66;68.67
21594;BME280;10959;51.328;7.322;2024-02-23T01:57:11;96438.84;;;6.67;68.39
21594;BME280;10959;51.328;7.322;2024-02-23T01:59:38;96442.31;;;6.68;68.58
21594;BME280;10959;51.328;7.322;2024-02-23T02:02:06;96444.22;;;6.67;68.56
21594;BME280;10959;51.328;7.322;2024-02-23T02:04:32;96445.59;;;6.65;68.36
21594;BME280;10959;51.328;7.322;2024-02-23T02:06:59;96442.91;;;6.65;68.14
21594;BME280;10959;51.328;7.322;2024-02-23T02:09:28;96435.41;;;6.61;67.96
21594;BME280;10959;51.328;7.322;2024-02-23T02:11:54;96439.69;;;6.62;68.32
21594;BME280;10959;51.328;7.322;2024-02-23T02:14:20;96444.53;;;6.60;68.31
21594;BME280;10959;51.328;7.322;2024-02-23T02:16:47;96444.53;;;6.60;68.33
21594;BME280;10959;51.328;7.322;2024-02-23T02:19:14;96452.84;;;6.64;67.74
21594;BME280;10959;51.328;7.322;2024-02-23T02:21:41;96452.03;;;6.63;68.13
21594;BME280;10959;51.328;7.322;2024-02-23T02:24:07;96453.41;;;6.61;68.05
21594;BME280;10959;51.328;7.322;2024-02-23T02:26:36;96446.72;;;6.58;67.94
21594;BME280;10959;51.328;7.322;2024-02-23T02:29:03;96445.63;;;6.59;68.27
21594;BME280;10959;51.328;7.322;2024-02-23T02:31:30;96455.78;;;6.62;68.14
21594;BME280;10959;51.328;7.322;2024-02-23T02:34:02;96468.13;;;6.63;67.84
21594;BME280;10959;51.328;7.322;2024-02-23T02:36:28;96471.91;;;6.62;67.77
21594;BME280;10959;51.328;7.322;2024-02-23T02:38:55;96477.56;;;6.61;67.82
21594;BME280;10959;51.328;7.322;2024-02-23T02:41:23;96460.97;;;6.54;67.66
21594;BME280;10959;51.328;7.322;2024-02-23T02:43:51;96485.44;;;6.52;68.17
21594;BME280;10959;51.328;7.322;2024-02-23T02:46:18;96493.75;;;6.51;67.79
21594;BME280;10959;51.328;7.322;2024-02-23T02:48:44;96495.06;;;6.53;67.95
21594;BME280;10959;51.328;7.322;2024-02-23T02:51:11;96499.38;;;6.54;67.57
21594;BME280;10959;51.328;7.322;2024-02-23T02:53:37;96487.56;;;6.55;67.87
21594;BME280;10959;51.328;7.322;2024-02-23T02:56:05;96488.13;;;6.52;67.60
21594;BME280;10959;51.328;7.322;2024-02-23T02:58:32;96488.13;;;6.52;67.86
21594;BME280;10959;51.328;7.322;2024-02-23T03:00:59;96502.06;;;6.54;67.85
21594;BME280;10959;51.328;7.322;2024-02-23T03:03:26;96492.97;;;6.50;67.85
21594;BME280;10959;51.328;7.322;2024-02-23T03:05:52;96512.28;;;6.52;67.89
21594;BME280;10959;51.328;7.322;2024-02-23T03:08:19;96514.72;;;6.49;67.93
21594;BME280;10959;51.328;7.322;2024-02-23T03:10:45;96520.56;;;6.56;68.29
21594;BME280;10959;51.328;7.322;2024-02-23T03:13:12;96511.72;;;6.55;67.79
21594;BME280;10959;51.328;7.322;2024-02-23T03:15:38;96526.78;;;6.51;67.81
21594;BME280;10959;51.328;7.322;2024-02-23T03:18:06;96530.84;;;6.49;67.84
21594;BME280;10959;51.328;7.322;2024-02-23T03:20:34;96538.09;;;6.48;67.84
21594;BME280;10959;51.328;7.322;2024-02-23T03:23:01;96529.53;;;6.46;67.83
21594;BME280;10959;51.328;7.322;2024-02-23T03:25:28;96531.09;;;6.47;67.91
21594;BME280;10959;51.328;7.322;2024-02-23T03:27:55;96530.28;;;6.47;67.70
21594;BME280;10959;51.328;7.322;2024-02-23T03:30:21;96533.03;;;6.42;67.82
21594;BME280;10959;51.328;7.322;2024-02-23T03:32:48;96544.34;;;6.39;67.67
21594;BME280;10959;51.328;7.322;2024-02-23T03:35:16;96552.44;;;6.34;67.84
21594;BME280;10959;51.328;7.322;2024-02-23T03:37:42;96533.34;;;6.35;67.83
21594;BME280;10959;51.328;7.322;2024-02-23T03:40:09;96543.00;;;6.36;67.80
21594;BME280;10959;51.328;7.322;2024-02-23T03:42:36;96542.22;;;6.36;67.83
21594;BME280;10959;51.328;7.322;2024-02-23T03:45:04;96540.88;;;6.33;67.72
21594;BME280;10959;51.328;7.322;2024-02-23T03:47:31;96551.13;;;6.31;67.63
21594;BME280;10959;51.328;7.322;2024-02-23T03:49:57;96552.50;;;6.24;67.61
21594;BME280;10959;51.328;7.322;2024-02-23T03:52:26;96553.31;;;6.24;67.88
21594;BME280;10959;51.328;7.322;2024-02-23T03:54:52;96559.72;;;6.28;67.85
21594;BME280;10959;51.328;7.322;2024-02-23T03:57:20;96549.75;;;6.29;67.89
21594;BME280;10959;51.328;7.322;2024-02-23T03:59:51;96562.66;;;6.27;67.48
21594;BME280;10959;51.328;7.322;2024-02-23T04:02:18;96556.47;;;6.31;67.65
21594;BME280;10959;51.328;7.322;2024-02-23T04:04:45;96561.84;;;6.31;67.42
21594;BME280;10959;51.328;7.322;2024-02-23T04:07:11;96557.88;;;6.24;66.96
21594;BME280;10959;51.328;7.322;2024-02-23T04:09:39;96561.09;;;6.21;66.78
21594;BME280;10959;51.328;7.322;2024-02-23T04:12:06;96564.59;;;6.21;67.14
21594;BME280;10959;51.328;7.322;2024-02-23T04:14:32;96560.34;;;6.15;67.00
21594;BME280;10959;51.328;7.322;2024-02-23T04:17:01;96571.88;;;6.16;67.28
21594;BME280;10959;51.328;7.322;2024-02-23T04:19:28;96582.06;;;6.19;67.25
21594;BME280;10959;51.328;7.322;2024-02-23T04:21:54;96576.69;;;6.19;67.08
21594;BME280;10959;51.328;7.322;2024-02-23T04:24:21;96578.31;;;6.15;66.84
21594;BME280;10959;51.328;7.322;2024-02-23T04:26:48;96572.69;;;6.16;66.87
21594;BME280;10959;51.328;7.322;2024-02-23T04:29:15;96588.22;;;6.19;67.21
21594;BME280;10959;51.328;7.322;2024-02-23T04:31:42;96576.13;;;6.22;66.67
21594;BME280;10959;51.328;7.322;2024-02-23T04:34:08;96575.31;;;6.21;66.88
21594;BME280;10959;51.328;7.322;2024-02-23T04:36:35;96589.56;;;6.22;66.72
21594;BME280;10959;51.328;7.322;2024-02-23T04:39:01;96591.44;;;6.21;66.49
21594;BME280;10959;51.328;7.322;2024-02-23T04:41:28;96590.63;;;6.21;66.67
21594;BME280;10959;51.328;7.322;2024-02-23T04:43:55;96584.44;;;6.20;66.59
21594;BME280;10959;51.328;7.322;2024-02-23T04:46:25;96577.50;;;6.19;66.47
21594;BME280;10959;51.328;7.322;2024-02-23T04:48:51;96575.88;;;6.18;66.11
21594;BME280;10959;51.328;7.322;2024-02-23T04:51:18;96575.38;;;6.11;66.50
21594;BME280;10959;51.328;7.322;2024-02-23T04:53:44;96570.56;;;6.13;66.47
21594;BME280;10959;51.328;7.322;2024-02-23T04:56:11;96572.19;;;6.09;66.37
21594;BME280;10959;51.328;7.322;2024-02-23T04:58:38;96565.22;;;6.08;66.44
21594;BME280;10959;51.328;7.322;2024-02-23T05:01:07;96582.91;;;6.09;66.28
21594;BME280;10959;51.328;7.322;2024-02-23T05:03:34;96584.03;;;6.03;66.03
21594;BME280;10959;51.328;7.322;2024-02-23T05:06:01;96582.41;;;6.02;66.29
21594;BME280;10959;51.328;7.322;2024-02-23T05:08:28;96582.44;;;5.97;66.26
21594;BME280;10959;51.328;7.322;2024-02-23T05:10:55;96583.53;;;5.96;66.20
21594;BME280;10959;51.328;7.322;2024-02-23T05:13:22;96582.72;;;5.95;66.54
21594;BME280;10959;51.328;7.322;2024-02-23T05:15:48;96591.56;;;6.01;66.64
21594;BME280;10959;51.328;7.322;2024-02-23T05:18:16;96581.06;;;6.04;66.50
21594;BME280;10959;51.328;7.322;2024-02-23T05:20:43;96592.06;;;6.03;66.42
21594;BME280;10959;51.328;7.322;2024-02-23T05:23:09;96586.41;;;6.04;66.59
21594;BME280;10959;51.328;7.322;2024-02-23T05:25:36;96597.97;;;6.05;66.14
21594;BME280;10959;51.328;7.322;2024-02-23T05:28:02;96592.34;;;6.01;66.29
21594;BME280;10959;51.328;7.322;2024-02-23T05:30:29;96597.16;;;6.04;66.35
21594;BME280;10959;51.328;7.322;2024-02-23T05:32:56;96589.94;;;6.00;66.39
21594;BME280;10959;51.328;7.322;2024-02-23T05:35:24;96592.06;;;6.03;66.32
21594;BME280;10959;51.328;7.322;2024-02-23T05:37:51;96594.19;;;6.06;66.23
21594;BME280;10959;51.328;7.322;2024-02-23T05:40:18;96601.19;;;6.07;66.06
21594;BME280;10959;51.328;7.322;2024-02-23T05:42:44;96588.84;;;6.06;66.03
21594;BME280;10959;51.328;7.322;2024-02-23T05:45:11;96586.66;;;6.08;66.35
21594;BME280;10959;51.328;7.322;2024-02-23T05:47:37;96575.97;;;6.03;65.96
21594;BME280;10959;51.328;7.322;2024-02-23T05:50:05;96573.84;;;6.00;66.15
21594;BME280;10959;51.328;7.322;2024-02-23T05:52:33;96587.31;;;5.95;66.07
21594;BME280;10959;51.328;7.322;2024-02-23T05:55:00;96582.44;;;5.97;66.05
21594;BME280;10959;51.328;7.322;2024-02-23T05:57:27;96575.72;;;5.99;66.30
21594;BME280;10959;51.328;7.322;2024-02-23T05:59:54;96581.91;;;6.00;66.14
21594;BME280;10959;51.328;7.322;2024-02-23T06:02:21;96563.13;;;6.00;66.23
21594;BME280;10959;51.328;7.322;2024-02-23T06:04:47;96574.16;;;5.93;65.96
21594;BME280;10959;51.328;7.322;2024-02-23T06:07:14;96570.41;;;5.94;65.93
21594;BME280;10959;51.328;7.322;2024-02-23T06:09:42;96572.03;;;5.90;65.89
21594;BME280;10959;51.328;7.322;2024-02-23T06:12:09;96567.50;;;5.86;66.03
21594;BME280;10959;51.328;7.322;2024-02-23T06:14:35;96580.06;;;5.90;66.26
21594;BME280;10959;51.328;7.322;2024-02-23T06:17:02;96576.59;;;5.85;66.38
21594;BME280;10959;51.328;7.322;2024-02-23T06:19:29;96576.31;;;5.86;66.16
21594;BME280;10959;51.328;7.322;2024-02-23T06:21:55;96577.13;;;5.87;66.29
21594;BME280;10959;51.328;7.322;2024-02-23T06:24:22;96580.34;;;5.84;66.25
21594;BME280;10959;51.328;7.322;2024-02-23T06:26:50;96571.22;;;5.85;66.26
21594;BME280;10959;51.328;7.322;2024-02-23T06:29:22;96579.31;;;5.80;65.93
21594;BME280;10959;51.328;7.322;2024-02-23T06:31:48;96572.84;;;5.81;65.97
21594;BME280;10959;51.328;7.322;2024-02-23T06:34:15;96582.50;;;5.82;66.42
21594;BME280;10959;51.328;7.322;2024-02-23T06:36:42;96585.69;;;5.84;66.35
21594;BME280;10959;51.328;7.322;2024-02-23T06:39:08;96573.91;;;5.85;66.13
21594;BME280;10959;51.328;7.322;2024-02-23T06:41:36;96577.66;;;5.84;66.22
21594;BME280;10959;51.328;7.322;2024-02-23T06:44:05;96572.56;;;5.82;66.31
21594;BME280;10959;51.328;7.322;2024-02-23T06:46:32;96578.50;;;5.79;66.04
21594;BME280;10959;51.328;7.322;2024-02-23T06:48:58;96575.25;;;5.82;66.20
21594;BME280;10959;51.328;7.322;2024-02-23T06:51:25;96570.16;;;5.81;66.19
21594;BME280;10959;51.328;7.322;2024-02-23T06:53:52;96579.25;;;5.85;66.19
21594;BME280;10959;51.328;7.322;2024-02-23T06:56:20;96573.38;;;5.83;66.14
21594;BME280;10959;51.328;7.322;2024-02-23T06:58:46;96575.53;;;5.81;66.13
21594;BME280;10959;51.328;7.322;2024-02-23T07:01:14;96588.41;;;5.79;65.79
21594;BME280;10959;51.328;7.322;2024-02-23T07:03:41;96579.59;;;5.73;66.39
21594;BME280;10959;51.328;7.322;2024-02-23T07:06:08;96580.91;;;5.76;66.31
21594;BME280;10959;51.328;7.322;2024-02-23T07:08:35;96575.56;;;5.76;66.42
21594;BME280;10959;51.328;7.322;2024-02-23T07:11:02;96574.16;;;5.83;66.33
21594;BME280;10959;51.328;7.322;2024-02-23T07:13:28;96574.50;;;5.77;66.11
21594;BME280;10959;51.328;7.322;2024-02-23T07:15:55;96572.88;;;5.76;66.10
21594;BME280;10959;51.328;7.322;2024-02-23T07:18:23;96566.97;;;5.79;66.21
21594;BME280;10959;51.328;7.322;2024-02-23T07:20:50;96562.16;;;5.76;66.24
21594;BME280;10959;51.328;7.322;2024-02-23T07:23:16;96570.41;;;5.89;66.13
21594;BME280;10959;51.328;7.322;2024-02-23T07:25:43;96565.84;;;5.85;66.00
21594;BME280;10959;51.328;7.322;2024-02-23T07:28:09;96574.16;;;5.83;65.90
21594;BME280;10959;51.328;7.322;2024-02-23T07:30:36;96572.53;;;5.92;65.96
21594;BME280;10959;51.328;7.322;2024-02-23T07:33:03;96569.47;;;6.14;65.99
21594;BME280;10959;51.328;7.322;2024-02-23T07:35:30;96586.47;;;6.38;65.47
21594;BME280;10959;51.328;7.322;2024-02-23T07:37:57;96597.09;;;6.58;65.10
21594;BME280;10959;51.328;7.322;2024-02-23T07:40:23;96599.59;;;6.79;64.87
21594;BME280;10959;51.328;7.322;2024-02-23T07:42:50;96593.84;;;6.90;64.46
21594;BME280;10959;51.328;7.322;2024-02-23T07:45:17;96596.72;;;6.99;63.98
21594;BME280;10959;51.328;7.322;2024-02-23T07:47:43;96595.78;;;7.13;63.83
21594;BME280;10959;51.328;7.322;2024-02-23T07:50:10;96593.22;;;7.03;63.47
21594;BME280;10959;51.328;7.322;2024-02-23T07:52:39;96604.69;;;7.09;63.70
21594;BME280;10959;51.328;7.322;2024-02-23T07:55:06;96599.81;;;7.16;63.15
21594;BME280;10959;51.328;7.322;2024-02-23T07:57:33;96599.66;;;7.31;63.51
21594;BME280;10959;51.328;7.322;2024-02-23T07:59:59;96598.50;;;7.37;63.20
21594;BME280;10959;51.328;7.322;2024-02-23T08:02:26;96595.41;;;7.25;62.25
21594;BME280;10959;51.328;7.322;2024-02-23T08:04:52;96598.50;;;7.37;63.01
21594;BME280;10959;51.328;7.322;2024-02-23T08:07:19;96596.16;;;7.54;62.48
21594;BME280;10959;51.328;7.322;2024-02-23T08:09:47;96604.16;;;7.59;61.55
21594;BME280;10959;51.328;7.322;2024-02-23T08:12:13;96610.97;;;7.76;61.95
21594;BME280;10959;51.328;7.322;2024-02-23T08:14:41;96614.63;;;7.85;61.61
21594;BME280;10959;51.328;7.322;2024-02-23T08:17:09;96623.22;;;7.87;62.08
21594;BME280;10959;51.328;7.322;2024-02-23T08:19:35;96638.09;;;8.03;61.69
21594;BME280;10959;51.328;7.322;2024-02-23T08:22:01;96624.56;;;8.08;60.77
21594;BME280;10959;51.328;7.322;2024-02-23T08:24:28;96623.75;;;8.07;61.70
21594;BME280;10959;51.328;7.322;2024-02-23T08:26:56;96631.97;;;8.16;60.54
21594;BME280;10959;51.328;7.322;2024-02-23T08:29:22;96628.66;;;8.24;60.73
21594;BME280;10959;51.328;7.322;2024-02-23T08:31:49;96628.53;;;8.34;60.46
21594;BME280;10959;51.328;7.322;2024-02-23T08:34:15;96627.25;;;8.50;60.82
21594;BME280;10959;51.328;7.322;2024-02-23T08:36:42;96627.09;;;8.60;60.23
21594;BME280;10959;51.328;7.322;2024-02-23T08:39:09;96617.31;;;8.64;59.86
21594;BME280;10959;51.328;7.322;2024-02-23T08:41:35;96620.38;;;8.76;59.54
21594;BME280;10959;51.328;7.322;2024-02-23T08:44:03;96618.66;;;8.48;59.70
21594;BME280;10959;51.328;7.322;2024-02-23T08:46:30;96617.31;;;8.27;59.98
21594;BME280;10959;51.328;7.322;2024-02-23T08:48:56;96627.97;;;8.13;60.83
21594;BME280;10959;51.328;7.322;2024-02-23T08:51:22;96630.03;;;8.03;60.89
21594;BME280;10959;51.328;7.322;2024-02-23T08:53:49;96633.13;;;8.10;61.09
21594;BME280;10959;51.328;7.322;2024-02-23T08:56:15;96620.06;;;8.22;61.08
21594;BME280;10959;51.328;7.322;2024-02-23T08:58:42;96621.22;;;8.16;61.10
21594;BME280;10959;51.328;7.322;2024-02-23T09:01:10;96631.19;;;8.15;61.31
21594;BME280;10959;51.328;7.322;2024-02-23T09:03:37;96625.22;;;8.00;61.16
21594;BME280;10959;51.328;7.322;2024-02-23T09:06:04;96620.97;;;7.94;60.49
21594;BME280;10959;51.328;7.322;2024-02-23T09:08:30;96628.13;;;7.80;60.80
21594;BME280;10959;51.328;7.322;2024-02-23T09:10:57;96636.28;;;7.74;61.59
21594;BME280;10959;51.328;7.322;2024-02-23T09:13:23;96636.41;;;7.64;61.32
21594;BME280;10959;51.328;7.322;2024-02-23T09:15:51;96638.13;;;7.55;61.71
21594;BME280;10959;51.328;7.322;2024-02-23T09:18:19;96634.06;;;7.58;61.58
21594;BME280;10959;51.328;7.322;2024-02-23T09:20:46;96633.00;;;7.54;61.59
21594;BME280;10959;51.328;7.322;2024-02-23T09:23:12;96638.16;;;7.50;62.13
21594;BME280;10959;51.328;7.322;2024-02-23T09:25:39;96644.06;;;7.52;62.26
21594;BME280;10959;51.328;7.322;2024-02-23T09:28:06;96635.19;;;7.52;62.25
21594;BME280;10959;51.328;7.322;2024-02-23T09:30:36;96638.56;;;7.62;62.14
21594;BME280;10959;51.328;7.322;2024-02-23T09:33:02;96639.09;;;7.64;62.26
21594;BME280;10959;51.328;7.322;2024-02-23T09:35:30;96643.09;;;7.67;62.42
21594;BME280;10959;51.328;7.322;2024-02-23T09:37:57;96635.28;;;7.65;61.82
21594;BME280;10959;51.328;7.322;2024-02-23T09:40:23;96634.72;;;7.68;62.30
21594;BME280;10959;51.328;7.322;2024-02-23T09:42:55;96635.03;;;7.67;61.68
21594;BME280;10959;51.328;7.322;2024-02-23T09:45:22;96630.97;;;7.69;61.95
21594;BME280;10959;51.328;7.322;2024-02-23T09:47:49;96624.84;;;7.64;61.73
21594;BME280;10959;51.328;7.322;2024-02-23T09:50:17;96624.94;;;7.54;61.73
21594;BME280;10959;51.328;7.322;2024-02-23T09:52:47;96624.03;;;7.63;62.15
21594;BME280;10959;51.328;7.322;2024-02-23T09:55:15;96638.22;;;7.93;62.09
21594;BME280;10959;51.328;7.322;2024-02-23T09:57:42;96643.00;;;7.96;61.55
21594;BME280;10959;51.328;7.322;2024-02-23T10:00:10;96648.97;;;7.93;60.94
21594;BME280;10959;51.328;7.322;2024-02-23T10:02:37;96653.69;;;7.82;61.67
21594;BME280;10959;51.328;7.322;2024-02-23T10:05:06;96653.38;;;7.84;61.78
21594;BME280;10959;51.328;7.322;2024-02-23T10:07:33;96662.50;;;7.88;61.70
21594;BME280;10959;51.328;7.322;2024-02-23T10:10:01;96649.13;;;8.01;61.20
21594;BME280;10959;51.328;7.322;2024-02-23T10:12:29;96645.63;;;8.43;60.84
21594;BME280;10959;51.328;7.322;2024-02-23T10:14:56;96652.06;;;8.47;60.84
21594;BME280;10959;51.328;7.322;2024-02-23T10:17:22;96651.69;;;8.35;59.97
21594;BME280;10959;51.328;7.322;2024-02-23T10:19:49;96650.19;;;8.24;60.48
21594;BME280;10959;51.328;7.322;2024-02-23T10:22:15;96671.22;;;8.22;61.58
21594;BME280;10959;51.328;7.322;2024-02-23T10:24:42;96651.41;;;8.13;61.59
21594;BME280;10959;51.328;7.322;2024-02-23T10:27:10;96648.28;;;8.06;60.92
21594;BME280;10959;51.328;7.322;2024-02-23T10:29:36;96646.44;;;8.01;61.24
21594;BME280;10959;51.328;7.322;2024-02-23T10:32:04;96649.44;;;8.00;61.96
21594;BME280;10959;51.328;7.322;2024-02-23T10:34:33;96645.63;;;8.01;61.57
21594;BME280;10959;51.328;7.322;2024-02-23T10:37:04;96649.09;;;8.06;61.50
21594;BME280;10959;51.328;7.322;2024-02-23T10:39:35;96641.28;;;8.05;60.72
21594;BME280;10959;51.328;7.322;2024-02-23T10:42:03;96642.69;;;8.21;60.97
21594;BME280;10959;51.328;7.322;2024-02-23T10:44:32;96648.09;;;8.21;60.56
21594;BME280;10959;51.328;7.322;2024-02-23T10:47:00;96638.41;;;8.20;60.40
21594;BME280;10959;51.328;7.322;2024-02-23T10:49:27;96652.94;;;8.19;60.20
21594;BME280;10959;51.328;7.322;2024-02-23T10:51:54;96663.94;;;8.22;59.86
21594;BME280;10959;51.328;7.322;2024-02-23T10:54:21;96655.13;;;8.17;59.40
21594;BME280;10959;51.328;7.322;2024-02-23T10:56:49;96657.75;;;8.22;60.22
21594;BME280;10959;51.328;7.322;2024-02-23T10:59:16;96665.22;;;8.30;59.64
21594;BME280;10959;51.328;7.322;2024-02-23T11:01:46;96666.22;;;8.34;59.11
21594;BME280;10959;51.328;7.322;2024-02-23T11:04:15;96672.66;;;8.38;59.61
21594;BME280;10959;51.328;7.322;2024-02-23T11:06:42;96668.06;;;8.39;59.42
21594;BME280;10959;51.328;7.322;2024-02-23T11:09:12;96672.38;;;8.40;59.38
21594;BME280;10959;51.328;7.322;2024-02-23T11:11:38;96667.19;;;8.43;59.56
21594;BME280;10959;51.328;7.322;2024-02-23T11:14:07;96676.88;;;8.44;59.67
21594;BME280;10959;51.328;7.322;2024-02-23T11:16:38;96673.09;;;8.45;58.89
21594;BME280;10959;51.328;7.322;2024-02-23T11:19:09;96669.09;;;8.43;59.73
21594;BME280;10959;51.328;7.322;2024-02-23T11:21:37;96647.25;;;8.44;58.57
21594;BME280;10959;51.328;7.322;2024-02-23T11:24:04;96659.09;;;8.43;58.36
21594;BME280;10959;51.328;7.322;2024-02-23T11:26:31;96670.91;;;8.47;57.87
21594;BME280;10959;51.328;7.322;2024-02-23T11:28:58;96652.72;;;8.58;58.58
21594;BME280;10959;51.328;7.322;2024-02-23T11:31:30;96657.22;;;9.00;58.05
21594;BME280;10959;51.328;7.322;2024-02-23T11:33:57;96650.13;;;9.36;57.71
21594;BME280;10959;51.328;7.322;2024-02-23T11:36:29;96657.53;;;9.44;56.01
21594;BME280;10959;51.328;7.322;2024-02-23T11:38:58;96642.75;;;9.55;56.56
21594;BME280;10959;51.328;7.322;2024-02-23T11:41:26;96642.75;;;9.55;57.02
21594;BME280;10959;51.328;7.322;2024-02-23T11:43:53;96638.53;;;9.49;56.39
21594;BME280;10959;51.328;7.322;2024-02-23T11:46:21;96634.75;;;9.36;55.96
21594;BME280;10959;51.328;7.322;2024-02-23T11:48:48;96642.41;;;9.29;57.29
21594;BME280;10959;51.328;7.322;2024-02-23T11:51:19;96624.28;;;9.16;56.22
21594;BME280;10959;51.328;7.322;2024-02-23T11:53:47;96645.16;;;9.11;56.73
21594;BME280;10959;51.328;7.322;2024-02-23T11:56:13;96642.78;;;9.09;57.44
21594;BME280;10959;51.328;7.322;2024-02-23T11:58:40;96655.00;;;9.02;56.87
21594;BME280;10959;51.328;7.322;2024-02-23T12:01:06;96647.22;;;9.00;57.63
21594;BME280;10959;51.328;7.322;2024-02-23T12:03:33;96640.72;;;9.01;57.65
21594;BME280;10959;51.328;7.322;2024-02-23T12:06:01;96650.31;;;9.07;58.21
21594;BME280;10959;51.328;7.322;2024-02-23T12:08:29;96649.47;;;9.12;57.86
21594;BME280;10959;51.328;7.322;2024-02-23T12:10:59;96651.38;;;9.25;57.98
21594;BME280;10959;51.328;7.322;2024-02-23T12:13:26;96644.22;;;9.34;57.83
21594;BME280;10959;51.328;7.322;2024-02-23T12:15:53;96651.72;;;9.37;56.77
21594;BME280;10959;51.328;7.322;2024-02-23T12:18:21;96647.31;;;9.27;56.87
21594;BME280;10959;51.328;7.322;2024-02-23T12:20:48;96658.47;;;9.21;57.50
21594;BME280;10959;51.328;7.322;2024-02-23T12:23:15;96651.03;;;9.13;56.99
21594;BME280;10959;51.328;7.322;2024-02-23T12:25:52;96656.84;;;9.06;57.59
21594;BME280;10959;51.328;7.322;2024-02-23T12:28:20;96680.09;;;9.16;57.31
21594;BME280;10959;51.328;7.322;2024-02-23T12:30:46;96662.94;;;9.12;56.62
21594;BME280;10959;51.328;7.322;2024-02-23T12:33:15;96660.03;;;9.08;56.64
21594;BME280;10959;51.328;7.322;2024-02-23T12:35:42;96669.41;;;9.11;56.40
21594;BME280;10959;51.328;7.322;2024-02-23T12:38:08;96669.28;;;9.02;57.41
21594;BME280;10959;51.328;7.322;2024-02-23T12:40:35;96662.59;;;9.00;57.17
21594;BME280;10959;51.328;7.322;2024-02-23T12:43:01;96673.66;;;8.98;57.68
21594;BME280;10959;51.328;7.322;2024-02-23T12:45:29;96672.78;;;9.03;57.66
21594;BME280;10959;51.328;7.322;2024-02-23T12:47:56;96679.28;;;9.02;57.56
21594;BME280;10959;51.328;7.322;2024-02-23T12:50:22;96674.78;;;8.97;57.22
21594;BME280;10959;51.328;7.322;2024-02-23T12:52:48;96667.78;;;8.96;57.80
21594;BME280;10959;51.328;7.322;2024-02-23T12:55:15;96675.19;;;9.04;57.72
21594;BME280;10959;51.328;7.322;2024-02-23T12:57:42;96674.97;;;9.01;58.15
21594;BME280;10959;51.328;7.322;2024-02-23T13:00:09;96673.38;;;9.00;57.37
21594;BME280;10959;51.328;7.322;2024-02-23T13:02:36;96668.41;;;9.07;58.34
21594;BME280;10959;51.328;7.322;2024-02-23T13:05:03;96675.41;;;9.08;57.58
21594;BME280;10959;51.328;7.322;2024-02-23T13:07:30;96677.88;;;9.04;58.25
21594;BME280;10959;51.328;7.322;2024-02-23T13:09:56;96680.16;;;8.97;57.28